Maryland Heights, Missouri
Current Conditions -  °F | °C
As of 4:51 PM on Wednesday 22 Oct 2014 (Local Time) from KSTL Reporting Station
Clear Clear  
Wind Chill: 63°   Ceiling: Unl
Heat Index: 63°   Visibility: 10mi
Dew Point: 41°   Wind: 6mph
Humidity: 45%   Direction: 100°E
Pressure: 30.23"   Gusts: NA
Location:  38.72°N, 90.44°W
Report Text: KSTL 222151Z 10005KT 10SM CLR 17/05 A3023 RMK AO2 SLP236 T01720050
Loading
Personal Weather Stations






























Interactive Weather Map New forecast layout! Learn more

10-Day Weather Forecast

Advertisements
Track Severe Weather on mobile